createdAt,value
2022-10-10T00:04:10.887Z,5.22
2022-10-10T00:09:12.469Z,5.25
2022-10-10T00:14:14.104Z,4.78
2022-10-10T00:19:15.824Z,4.18
2022-10-10T00:24:17.584Z,4.93
2022-10-10T00:29:19.140Z,4.20
2022-10-10T00:34:20.757Z,4.53
2022-10-10T00:39:22.379Z,5.00
2022-10-10T00:44:24.035Z,4.18
2022-10-10T00:49:44.600Z,4.90
2022-10-10T00:54:46.214Z,4.60
2022-10-10T00:59:48.237Z,5.25
2022-10-10T01:04:49.869Z,4.40
2022-10-10T01:09:54.927Z,4.80
2022-10-10T01:15:08.370Z,5.10
2022-10-10T01:20:31.179Z,5.10
2022-10-10T01:25:59.574Z,4.90
2022-10-10T01:31:01.282Z,4.90
2022-10-10T01:36:22.684Z,5.25
2022-10-10T01:41:43.060Z,5.05
2022-10-10T01:46:44.775Z,4.97
2022-10-10T01:52:07.742Z,5.13
2022-10-10T01:57:39.832Z,5.57
2022-10-10T02:02:49.754Z,4.90
2022-10-10T02:08:03.449Z,5.25
2022-10-10T02:13:06.186Z,5.43
2022-10-10T02:18:10.711Z,5.20
2022-10-10T02:23:16.641Z,4.78
2022-10-10T02:28:29.519Z,5.00
2022-10-10T02:33:56.568Z,6.03
2022-10-10T02:38:59.769Z,4.75
2022-10-10T02:44:01.771Z,4.88
2022-10-10T02:49:03.524Z,5.25
2022-10-10T02:54:06.426Z,5.32
2022-10-10T02:59:08.058Z,5.32
2022-10-10T03:04:10.182Z,5.45
2022-10-10T03:09:11.778Z,4.72
2022-10-10T03:14:13.431Z,5.72
2022-10-10T03:19:14.994Z,5.60
2022-10-10T03:24:16.652Z,5.68
2022-10-10T03:29:18.320Z,6.10
2022-10-10T03:34:22.867Z,5.38
2022-10-10T03:39:24.534Z,5.53
2022-10-10T03:44:26.176Z,6.43
2022-10-10T03:49:27.944Z,5.93
2022-10-10T03:54:29.516Z,5.85
2022-10-10T03:59:31.128Z,5.28
2022-10-10T04:04:32.831Z,5.82
2022-10-10T04:09:34.484Z,6.20
2022-10-10T04:14:36.034Z,5.63
2022-10-10T04:19:37.662Z,5.68
2022-10-10T04:24:39.244Z,5.85
2022-10-10T04:29:40.953Z,6.97
2022-10-10T04:34:42.646Z,6.03
2022-10-10T04:39:44.275Z,6.10
2022-10-10T04:44:45.965Z,6.03
2022-10-10T04:49:47.615Z,5.53
2022-10-10T04:54:49.221Z,5.70
2022-10-10T04:59:50.851Z,6.22
2022-10-10T05:04:52.519Z,5.85
2022-10-10T05:09:54.271Z,5.77
2022-10-10T05:14:55.907Z,6.03
2022-10-10T05:19:57.507Z,5.57
2022-10-10T05:25:00.191Z,6.20
2022-10-10T05:30:01.892Z,5.43
2022-10-10T05:35:20.752Z,6.30
2022-10-10T05:40:23.459Z,6.55
2022-10-10T05:45:26.207Z,6.28
2022-10-10T05:50:34.269Z,6.43
2022-10-10T05:55:36.707Z,6.03
2022-10-10T06:00:38.295Z,6.30
2022-10-10T06:05:41.322Z,6.03
2022-10-10T06:10:45.802Z,6.40
2022-10-10T06:15:52.053Z,6.57
2022-10-10T06:20:53.653Z,6.45
2022-10-10T06:25:55.330Z,6.85
2022-10-10T06:31:02.030Z,6.50
2022-10-10T06:36:06.318Z,6.82
2022-10-10T06:41:09.323Z,6.50
2022-10-10T06:46:11.836Z,6.97
2022-10-10T06:51:15.540Z,5.90
2022-10-10T06:56:27.415Z,6.05
2022-10-10T07:01:29.640Z,6.65
2022-10-10T07:06:34.813Z,6.90
2022-10-10T07:11:36.832Z,6.22
2022-10-10T07:16:38.503Z,6.95
2022-10-10T07:21:40.112Z,7.05
2022-10-10T07:26:41.766Z,6.53
2022-10-10T07:31:43.432Z,8.07
2022-10-10T07:36:49.052Z,7.13
2022-10-10T07:41:52.031Z,6.00
2022-10-10T07:46:53.914Z,7.05
2022-10-10T07:51:58.987Z,7.05
2022-10-10T07:57:02.985Z,7.30
2022-10-10T08:02:05.087Z,6.60
2022-10-10T08:07:07.271Z,6.93
2022-10-10T08:12:08.883Z,6.70
2022-10-10T08:17:10.750Z,7.28
2022-10-10T08:22:13.028Z,7.53
2022-10-10T08:27:17.610Z,7.38
2022-10-10T08:32:19.251Z,7.70
2022-10-10T08:37:21.665Z,7.68
2022-10-10T08:42:33.093Z,7.95
2022-10-10T08:47:46.952Z,7.32
2022-10-10T08:53:01.023Z,7.95
2022-10-10T08:58:20.541Z,8.45
2022-10-10T09:03:48.808Z,8.07
2022-10-10T09:08:56.232Z,8.82
2022-10-10T09:14:33.649Z,7.80
2022-10-10T09:19:47.169Z,7.95
2022-10-10T09:25:18.473Z,7.18
2022-10-10T09:30:21.313Z,7.25
2022-10-10T09:35:26.336Z,7.10
2022-10-10T09:40:36.418Z,6.95
2022-10-10T09:45:42.475Z,7.78
2022-10-10T09:50:44.084Z,7.03
2022-10-10T09:55:47.972Z,7.35
2022-10-10T10:00:50.002Z,7.18
2022-10-10T10:05:55.245Z,6.53
2022-10-10T10:10:58.475Z,8.45
2022-10-10T10:16:18.679Z,5.80
2022-10-10T10:21:23.803Z,4.95
2022-10-10T10:26:42.455Z,4.93
2022-10-10T10:32:05.109Z,3.17
2022-10-10T10:37:17.860Z,2.55
2022-10-10T10:42:22.259Z,1.80
2022-10-10T10:47:42.358Z,3.50
2022-10-10T10:52:47.024Z,3.15
2022-10-10T10:58:22.463Z,1.95
2022-10-10T11:05:15.976Z,2.38
2022-10-10T11:09:01.713Z,2.33
2022-10-10T11:14:18.523Z,1.75
2022-10-10T11:19:47.619Z,1.92
2022-10-10T11:24:54.287Z,1.90
2022-10-10T11:30:03.451Z,1.85
2022-10-10T11:35:14.686Z,1.37
2022-10-10T11:41:13.201Z,1.27
2022-10-10T11:46:24.788Z,1.02
2022-10-10T11:51:48.141Z,0.70
2022-10-10T11:56:53.808Z,0.60
2022-10-10T12:07:25.618Z,0.63
2022-10-10T12:12:37.757Z,0.90
2022-10-10T12:17:44.017Z,0.60
2022-10-10T12:22:46.870Z,1.13
2022-10-10T12:28:06.177Z,0.93
2022-10-10T12:33:20.126Z,1.03
2022-10-10T12:38:24.091Z,0.73
2022-10-10T12:43:46.041Z,0.57
2022-10-10T12:48:58.953Z,1.17
2022-10-10T12:54:04.457Z,0.70
2022-10-10T12:59:17.036Z,1.02
2022-10-10T13:04:19.403Z,1.92
2022-10-10T13:09:24.651Z,2.13
2022-10-10T13:14:37.240Z,1.45
2022-10-10T13:19:42.011Z,1.30
2022-10-10T13:24:45.287Z,6.10
2022-10-10T13:29:47.769Z,2.45
2022-10-10T13:34:53.899Z,1.92
2022-10-10T13:39:55.876Z,1.95
2022-10-10T13:45:00.396Z,1.58
2022-10-10T13:50:02.415Z,1.92
2022-10-10T13:55:16.210Z,2.00
2022-10-10T14:00:20.360Z,1.48
2022-10-10T14:05:30.361Z,2.40
2022-10-10T14:10:36.118Z,2.78
2022-10-10T14:15:40.834Z,2.22
2022-10-10T14:20:42.694Z,1.70
2022-10-10T14:25:47.025Z,1.35
2022-10-10T14:30:48.679Z,1.80
2022-10-10T14:35:51.953Z,2.22
2022-10-10T14:40:54.642Z,1.20
2022-10-10T14:45:56.485Z,1.33
2022-10-10T14:50:58.122Z,2.10
2022-10-10T14:55:59.741Z,2.25
2022-10-10T15:01:01.730Z,1.70
2022-10-10T15:06:03.994Z,1.38
2022-10-10T15:11:06.038Z,1.42
2022-10-10T15:16:07.827Z,1.77
2022-10-10T15:21:13.309Z,1.65
2022-10-10T15:26:15.007Z,1.38
2022-10-10T15:31:16.756Z,1.20
2022-10-10T15:36:19.286Z,1.35
2022-10-10T15:41:21.152Z,2.05
2022-10-10T15:46:26.519Z,1.60
2022-10-10T15:51:29.280Z,1.60
2022-10-10T15:56:31.059Z,2.65
2022-10-10T16:01:37.101Z,1.73
2022-10-10T16:06:39.807Z,2.05
2022-10-10T16:11:41.404Z,1.83
2022-10-10T16:16:43.006Z,2.50
2022-10-10T16:21:44.907Z,2.08
2022-10-10T16:26:46.554Z,1.80
2022-10-10T16:31:48.286Z,2.45
2022-10-10T16:36:49.914Z,1.70
2022-10-10T16:41:51.687Z,1.70
2022-10-10T16:47:07.172Z,1.75
2022-10-10T16:52:09.009Z,1.40
2022-10-10T16:57:12.060Z,2.17
2022-10-10T17:02:14.803Z,2.70
2022-10-10T17:07:16.585Z,2.92
2022-10-10T17:12:19.568Z,4.15
2022-10-10T17:17:22.600Z,2.05
2022-10-10T17:22:30.524Z,1.88
2022-10-10T17:27:35.105Z,2.13
2022-10-10T17:32:37.303Z,1.90
2022-10-10T17:37:39.108Z,2.72
2022-10-10T17:42:42.098Z,2.75
2022-10-10T17:47:43.833Z,2.40
2022-10-10T17:52:45.769Z,2.13
2022-10-10T17:57:49.358Z,1.80
2022-10-10T18:02:51.215Z,3.00
2022-10-10T18:07:54.275Z,2.30
2022-10-10T18:12:57.371Z,2.92
2022-10-10T18:17:59.167Z,3.70
2022-10-10T18:23:00.813Z,3.55
2022-10-10T18:28:02.388Z,3.58
2022-10-10T18:33:04.180Z,3.00
2022-10-10T18:38:06.040Z,3.67
2022-10-10T18:43:07.711Z,2.53
2022-10-10T18:48:09.534Z,1.70
2022-10-10T18:53:11.225Z,2.42
2022-10-10T18:58:12.954Z,1.75
2022-10-10T19:03:16.118Z,2.50
2022-10-10T19:08:18.126Z,2.03
2022-10-10T19:13:20.241Z,1.88
2022-10-10T19:18:22.898Z,1.88
2022-10-10T19:23:25.669Z,1.80
2022-10-10T19:28:27.477Z,2.00
2022-10-10T19:33:35.938Z,1.98
2022-10-10T19:38:41.364Z,2.50
2022-10-10T19:43:46.930Z,2.40
2022-10-10T19:48:50.238Z,2.50
2022-10-10T19:53:51.930Z,2.10
2022-10-10T19:58:55.975Z,1.63
2022-10-10T20:03:58.531Z,1.90
2022-10-10T20:09:00.409Z,1.50
2022-10-10T20:14:02.044Z,1.92
2022-10-10T20:19:03.915Z,1.90
2022-10-10T20:24:09.388Z,1.40
2022-10-10T20:29:11.037Z,2.78
2022-10-10T20:34:12.663Z,4.63
2022-10-10T20:39:14.446Z,2.53
2022-10-10T20:44:16.188Z,1.60
2022-10-10T20:49:19.976Z,1.90
2022-10-10T20:54:24.262Z,1.88
2022-10-10T20:59:25.959Z,1.55
2022-10-10T21:04:27.803Z,2.08
2022-10-10T21:09:29.440Z,1.55
2022-10-10T21:14:31.055Z,1.85
2022-10-10T21:19:33.246Z,1.92
2022-10-10T21:24:34.880Z,1.10
2022-10-10T21:29:36.475Z,2.00
2022-10-10T21:34:38.377Z,1.50
2022-10-10T21:39:40.096Z,1.67
2022-10-10T21:44:42.014Z,2.05
2022-10-10T21:49:43.684Z,1.85
2022-10-10T21:54:45.284Z,2.08
2022-10-10T21:59:47.016Z,2.00
2022-10-10T22:04:52.108Z,2.10
2022-10-10T22:09:53.782Z,1.75
2022-10-10T22:14:55.536Z,1.85
2022-10-10T22:19:57.156Z,2.47
2022-10-10T22:24:58.893Z,3.03
2022-10-10T22:30:00.579Z,2.40
2022-10-10T22:35:02.531Z,1.90
2022-10-10T22:40:04.685Z,3.00
2022-10-10T22:45:06.744Z,1.92
2022-10-10T22:50:09.354Z,2.88
2022-10-10T22:55:15.739Z,1.80
2022-10-10T23:00:19.934Z,1.85
2022-10-10T23:05:21.704Z,2.10
2022-10-10T23:10:23.373Z,1.92
2022-10-10T23:15:24.986Z,2.75
2022-10-10T23:20:26.756Z,2.00
2022-10-10T23:25:28.927Z,1.95
2022-10-10T23:30:30.592Z,1.90
2022-10-10T23:35:32.686Z,2.53
2022-10-10T23:40:34.400Z,1.65
2022-10-10T23:45:39.611Z,1.73
2022-10-10T23:50:41.453Z,1.60
2022-10-10T23:55:43.187Z,1.55
